Time;durP1;ratioP1;P1;durP2;ratioP2;P2;SDS_P1;SDS_P2;PMS_P1;PMS_P2;Temp;Humidity;BMP_temperature;BMP_pressure;BME280_temperature;BME280_humidity;BME280_pressure;Samples;Min_cycle;Max_cycle;Signal;HPM_P1;HPM_P2
2021/11/05 00:03:07;;;;;;;0.90;0.75;;;;;;;10.57;74.68;99467.78;2766836;84;21031;-73
2021/11/05 00:07:08;;;;;;;1.22;1.12;;;;;;;10.63;75.00;99477.00;2766642;86;21023;-78
2021/11/05 00:11:10;;;;;;;0.45;0.45;;;;;;;10.59;74.75;99483.61;2766842;86;21260;-76
2021/11/05 00:15:13;;;;;;;0.50;0.50;;;;;;;10.63;75.57;99496.47;2766734;86;21050;-75
2021/11/05 00:19:14;;;;;;;1.82;1.25;;;;;;;10.59;75.33;99503.55;2766760;86;21027;-74
2021/11/05 00:23:16;;;;;;;2.33;1.17;;;;;;;10.64;75.97;99509.27;2766743;86;21065;-73
2021/11/05 00:27:19;;;;;;;0.95;0.95;;;;;;;10.65;76.17;99508.28;2766899;86;21050;-71
2021/11/05 00:31:21;;;;;;;1.27;1.00;;;;;;;10.65;75.78;99510.45;2766849;86;21634;-73
2021/11/05 00:35:23;;;;;;;3.22;1.20;;;;;;;10.58;75.19;99514.66;2766730;86;21003;-77
2021/11/05 00:39:24;;;;;;;0.70;0.60;;;;;;;10.56;75.39;99520.63;2766859;84;21042;-73
2021/11/05 00:43:26;;;;;;;4.12;1.35;;;;;;;10.50;75.58;99537.16;2766780;86;21073;-74
2021/11/05 00:47:28;;;;;;;2.05;0.50;;;;;;;10.54;75.11;99545.19;2766958;86;21034;-72
2021/11/05 00:51:30;;;;;;;2.12;0.98;;;;;;;10.63;74.90;99549.66;2766842;86;21296;-76
2021/11/05 00:55:33;;;;;;;1.35;1.00;;;;;;;10.60;74.76;99545.94;2771744;85;21091;-74
2021/11/05 00:59:34;;;;;;;1.40;1.30;;;;;;;10.64;74.88;99557.98;2779084;85;21003;-74
2021/11/05 01:03:36;;;;;;;2.02;1.45;;;;;;;10.63;74.90;99562.96;2779615;83;21078;-73
2021/11/05 01:07:38;;;;;;;3.12;2.00;;;;;;;10.63;75.36;99569.61;2779352;83;21042;-73
2021/11/05 01:11:40;;;;;;;2.62;1.98;;;;;;;10.62;75.23;99569.27;2779260;84;21010;-75
2021/11/05 01:15:42;;;;;;;2.75;1.77;;;;;;;10.61;75.17;99583.55;2779243;85;21014;-73
2021/11/05 01:19:44;;;;;;;1.40;1.30;;;;;;;10.62;74.67;99583.89;2779018;85;21049;-72
2021/11/05 01:23:45;;;;;;;1.72;0.85;;;;;;;10.68;74.89;99587.30;2779099;85;21037;-72
2021/11/05 01:27:48;;;;;;;3.20;2.00;;;;;;;10.63;75.24;99596.20;2779024;85;21023;-73
2021/11/05 01:31:52;;;;;;;2.15;1.92;;;;;;;10.62;74.82;99607.83;2779141;85;21035;-73
2021/11/05 01:35:54;;;;;;;1.98;1.42;;;;;;;10.64;74.66;99609.85;2779299;85;21582;-72
2021/11/05 01:39:56;;;;;;;2.02;1.82;;;;;;;10.60;74.67;99571.20;2779098;85;21049;-73
2021/11/05 01:43:57;;;;;;;4.55;1.70;;;;;;;10.66;74.46;99605.23;2779368;85;21022;-73
2021/11/05 01:48:00;;;;;;;2.33;1.17;;;;;;;10.62;74.07;99605.17;2779270;85;21404;-71
2021/11/05 01:52:02;;;;;;;1.45;1.35;;;;;;;10.53;73.92;99604.68;2779140;85;21054;-73
2021/11/05 01:56:04;;;;;;;2.02;1.77;;;;;;;10.52;74.14;99603.00;2772680;85;21069;-74
2021/11/05 02:00:10;;;;;;;1.65;1.30;;;;;;;10.43;74.37;99597.57;2766845;83;21751;-73
2021/11/05 02:04:12;;;;;;;1.40;1.30;;;;;;;10.40;74.36;99606.28;2766690;86;21026;-72
2021/11/05 02:08:17;;;;;;;3.08;1.42;;;;;;;10.40;74.08;99608.94;2767054;83;21059;-73
2021/11/05 02:12:19;;;;;;;2.47;1.12;;;;;;;10.41;73.85;99602.67;2767017;83;21018;-74
2021/11/05 02:16:22;;;;;;;1.22;1.12;;;;;;;10.41;73.89;99611.97;2766817;84;21058;-72
2021/11/05 02:20:27;;;;;;;1.42;1.10;;;;;;;10.43;74.24;99602.89;2766565;84;21015;-74
2021/11/05 02:24:30;;;;;;;0.93;0.65;;;;;;;10.49;74.37;99609.94;2766930;86;21081;-73
2021/11/05 02:28:38;;;;;;;1.10;0.90;;;;;;;10.46;74.15;99613.71;2767069;86;21077;-72
2021/11/05 02:32:42;;;;;;;3.22;1.37;;;;;;;10.48;72.42;99618.90;2767083;86;21090;-74
2021/11/05 02:36:44;;;;;;;1.47;1.35;;;;;;;10.59;73.05;99633.86;2766869;86;21066;-73
2021/11/05 02:40:46;;;;;;;1.60;1.45;;;;;;;10.53;72.97;99636.11;2766819;86;21078;-75
2021/11/05 02:44:48;;;;;;;2.22;1.30;;;;;;;10.50;72.70;99648.34;2766763;86;21319;-74
2021/11/05 02:48:50;;;;;;;2.67;1.47;;;;;;;10.56;72.65;99655.77;2767058;85;21011;-76
2021/11/05 02:52:52;;;;;;;1.25;0.75;;;;;;;10.62;73.05;99659.69;2767121;86;21066;-72
2021/11/05 02:56:53;;;;;;;1.32;0.95;;;;;;;10.61;73.25;99671.31;2774281;85;21038;-75
2021/11/05 03:00:56;;;;;;;2.47;2.22;;;;;;;10.59;73.44;99673.75;2779371;85;21011;-73
2021/11/05 03:04:57;;;;;;;2.02;1.52;;;;;;;10.54;72.07;99683.47;2779115;85;21074;-71
2021/11/05 03:08:59;;;;;;;2.85;2.27;;;;;;;10.59;72.62;99686.55;2779674;85;21078;-76
2021/11/05 03:13:01;;;;;;;3.22;2.87;;;;;;;10.52;72.94;99684.96;2779679;85;21247;-71
2021/11/05 03:17:04;;;;;;;3.12;2.47;;;;;;;10.46;73.16;99701.96;2779458;85;21053;-72
2021/11/05 03:21:06;;;;;;;3.37;2.47;;;;;;;10.42;72.11;99696.07;2779619;85;21003;-76
2021/11/05 03:25:09;;;;;;;1.90;1.75;;;;;;;10.42;72.83;99703.58;2779257;85;21034;-74
2021/11/05 03:29:10;;;;;;;2.65;2.30;;;;;;;10.41;72.25;99712.50;2779272;85;21622;-74
2021/11/05 03:33:12;;;;;;;3.45;3.00;;;;;;;10.46;73.11;99723.23;2779429;85;21110;-72
2021/11/05 03:37:14;;;;;;;6.47;2.42;;;;;;;10.40;72.84;99728.10;2779602;85;21026;-74
2021/11/05 03:41:16;;;;;;;4.72;2.00;;;;;;;10.40;72.77;99725.92;2779615;85;21050;-74
2021/11/05 03:45:19;;;;;;;7.60;3.12;;;;;;;10.33;72.58;99717.66;2779537;85;21125;-76
2021/11/05 03:49:21;;;;;;;2.67;2.30;;;;;;;10.38;73.49;99737.19;2779542;85;21054;-72
2021/11/05 03:53:23;;;;;;;3.98;2.92;;;;;;;10.27;73.39;99746.12;2779550;85;21089;-77
2021/11/05 03:57:26;;;;;;;3.62;2.98;;;;;;;10.28;73.52;99759.77;2779309;83;21042;-73
2021/11/05 04:01:27;;;;;;;4.50;2.90;;;;;;;10.29;73.84;99777.39;2779360;85;21011;-76
2021/11/05 04:05:29;;;;;;;4.62;3.10;;;;;;;10.26;74.22;99780.33;2779310;84;21089;-76
2021/11/05 04:09:31;;;;;;;5.33;3.95;;;;;;;10.21;74.51;99770.57;2779454;83;21082;-72
2021/11/05 04:13:32;;;;;;;4.47;3.75;;;;;;;10.24;74.31;99779.13;2779236;85;21086;-73
2021/11/05 04:17:34;;;;;;;4.37;3.37;;;;;;;10.28;74.52;99799.64;2779048;85;21281;-74
2021/11/05 04:21:35;;;;;;;4.17;3.65;;;;;;;10.28;74.87;99792.49;2783265;83;21062;-72
2021/11/05 04:25:37;;;;;;;3.65;2.72;;;;;;;10.29;75.01;99801.32;2817277;83;21065;-75
2021/11/05 04:29:39;;;;;;;4.15;3.75;;;;;;;10.21;75.28;99803.80;2817329;84;21093;-75
2021/11/05 04:33:41;;;;;;;3.95;3.37;;;;;;;10.14;74.96;99807.00;2817235;84;21038;-77
2021/11/05 04:37:42;;;;;;;6.10;3.65;;;;;;;10.11;75.37;99816.58;2817437;84;20971;-76
2021/11/05 04:41:45;;;;;;;3.62;3.20;;;;;;;10.23;75.78;99821.81;2817231;84;21645;-76
2021/11/05 04:45:46;;;;;;;3.08;2.50;;;;;;;10.17;75.36;99830.30;2817178;84;21038;-76
2021/11/05 04:49:48;;;;;;;6.53;4.12;;;;;;;10.15;75.62;99825.96;2817206;84;21069;-75
2021/11/05 04:53:50;;;;;;;5.20;3.90;;;;;;;10.14;76.33;99839.41;2817444;84;21022;-71
2021/11/05 04:57:52;;;;;;;5.72;4.00;;;;;;;10.14;75.74;99838.07;2801530;84;21091;-75
2021/11/05 05:01:54;;;;;;;5.72;2.87;;;;;;;10.10;76.12;99833.98;2796418;85;21019;-75
2021/11/05 05:05:56;;;;;;;5.20;3.08;;;;;;;10.10;76.54;99844.14;2797534;85;21050;-73
2021/11/05 05:09:57;;;;;;;4.75;4.15;;;;;;;10.11;76.21;99847.14;2798354;85;21134;-71
2021/11/05 05:13:59;;;;;;;5.75;3.65;;;;;;;10.11;76.93;99852.46;2798645;85;21063;-71
2021/11/05 05:18:01;;;;;;;4.40;3.67;;;;;;;10.09;77.23;99862.38;2798118;85;21256;-71
2021/11/05 05:22:03;;;;;;;4.12;3.37;;;;;;;10.07;78.08;99872.31;2798536;85;21007;-72
2021/11/05 05:26:05;;;;;;;5.20;3.20;;;;;;;10.04;77.85;99879.22;2798322;85;20996;-72
2021/11/05 05:30:11;;;;;;;6.72;3.98;;;;;;;9.97;78.37;99874.06;2798355;85;21012;-71
2021/11/05 05:34:13;;;;;;;4.85;4.45;;;;;;;9.97;78.81;99881.56;2798229;85;21618;-70
2021/11/05 05:38:14;;;;;;;7.62;4.60;;;;;;;9.95;78.71;99903.91;2798096;85;21036;-73
2021/11/05 05:42:16;;;;;;;5.80;4.25;;;;;;;9.97;79.31;99901.96;2798590;84;21063;-71
2021/11/05 05:46:17;;;;;;;6.10;4.10;;;;;;;10.00;79.32;99913.66;2798793;85;21035;-72
2021/11/05 05:50:19;;;;;;;4.47;3.95;;;;;;;10.00;79.22;99929.12;2798746;85;21558;-71
2021/11/05 05:54:20;;;;;;;5.97;4.33;;;;;;;9.98;79.14;99925.76;2798742;85;21075;-71
2021/11/05 05:58:22;;;;;;;6.78;4.75;;;;;;;10.02;79.15;99931.63;2805149;84;20999;-72
2021/11/05 06:02:27;;;;;;;4.65;3.67;;;;;;;10.03;79.39;99955.93;2810790;84;21062;-70
2021/11/05 06:06:28;;;;;;;6.35;4.45;;;;;;;9.99;78.90;99961.13;2812573;83;21050;-71
2021/11/05 06:10:30;;;;;;;5.10;3.85;;;;;;;10.05;79.42;99982.36;2813168;83;21077;-70
2021/11/05 06:14:32;;;;;;;9.63;5.85;;;;;;;10.07;79.68;99968.45;2813187;84;21062;-70
2021/11/05 06:18:34;;;;;;;5.40;4.90;;;;;;;10.09;80.03;99993.08;2812808;84;20999;-72
2021/11/05 06:22:35;;;;;;;6.50;4.58;;;;;;;10.07;79.68;99999.88;2812877;84;21077;-70
2021/11/05 06:26:37;;;;;;;9.55;5.08;;;;;;;10.03;79.75;100002.44;2812981;84;21349;-72
2021/11/05 06:30:38;;;;;;;6.45;4.72;;;;;;;10.00;79.39;100006.66;2813020;84;21007;-72
2021/11/05 06:34:40;;;;;;;9.88;5.55;;;;;;;10.06;80.14;100019.45;2812892;84;20968;-72
2021/11/05 06:38:41;;;;;;;5.65;5.12;;;;;;;10.13;80.43;100035.72;2813050;84;21057;-71
2021/11/05 06:42:43;;;;;;;6.55;5.40;;;;;;;10.13;79.72;100041.87;2812685;83;21074;-72
2021/11/05 06:46:45;;;;;;;6.65;5.10;;;;;;;10.18;80.27;100055.25;2812675;84;21034;-72
2021/11/05 06:50:46;;;;;;;8.03;4.95;;;;;;;10.11;80.14;100061.09;2812919;84;21007;-71
2021/11/05 06:54:48;;;;;;;5.42;4.90;;;;;;;10.15;80.23;100070.48;2812899;84;21107;-70
2021/11/05 06:58:51;;;;;;;8.10;5.08;;;;;;;10.13;80.10;100067.12;2823684;82;21059;-71
2021/11/05 07:02:54;;;;;;;6.92;5.58;;;;;;;10.13;79.95;100077.75;2825866;84;21097;-71
2021/11/05 07:06:57;;;;;;;7.75;5.80;;;;;;;10.14;81.12;100088.73;2825920;84;21420;-71
2021/11/05 07:11:00;;;;;;;7.78;6.85;;;;;;;10.14;81.04;100090.06;2825707;84;20991;-71
2021/11/05 07:15:02;;;;;;;7.90;5.58;;;;;;;10.14;81.18;100103.86;2825743;84;21097;-70
2021/11/05 07:19:05;;;;;;;6.30;4.90;;;;;;;10.14;80.91;100103.35;2825653;84;21077;-71
2021/11/05 07:23:08;;;;;;;5.83;4.87;;;;;;;10.17;80.97;100100.08;2825604;84;21042;-72
2021/11/05 07:27:10;;;;;;;6.35;5.75;;;;;;;10.22;81.01;100107.17;2825757;84;21061;-72
2021/11/05 07:31:11;;;;;;;5.83;4.33;;;;;;;10.27;81.21;100115.63;2826006;84;21070;-70
2021/11/05 07:35:17;;;;;;;6.28;5.67;;;;;;;10.26;80.29;100127.23;2825840;84;21046;-69
2021/11/05 07:39:18;;;;;;;7.37;4.75;;;;;;;10.36;80.41;100133.46;2825849;82;20979;-72
2021/11/05 07:43:20;;;;;;;6.22;3.98;;;;;;;10.39;79.94;100140.34;2825875;84;21041;-70
2021/11/05 07:47:23;;;;;;;4.70;3.30;;;;;;;10.41;80.39;100145.91;2825796;84;21086;-72
2021/11/05 07:51:25;;;;;;;3.77;3.40;;;;;;;10.34;80.53;100153.19;2825951;84;21378;-71
2021/11/05 07:55:27;;;;;;;4.03;3.25;;;;;;;10.31;80.34;100154.28;2826110;84;21030;-71
2021/11/05 07:59:28;;;;;;;6.30;3.87;;;;;;;10.32;80.45;100169.26;2814437;84;21053;-71
2021/11/05 08:03:30;;;;;;;6.30;4.47;;;;;;;10.38;81.41;100181.20;2813028;84;21125;-71
2021/11/05 08:07:32;;;;;;;6.65;4.05;;;;;;;10.39;82.15;100183.72;2812514;84;21022;-71
2021/11/05 08:11:35;;;;;;;6.20;4.35;;;;;;;10.38;81.85;100190.52;2812537;84;21082;-72
2021/11/05 08:15:37;;;;;;;7.87;4.78;;;;;;;10.38;82.16;100196.66;2812345;84;21106;-72
2021/11/05 08:19:38;;;;;;;6.10;4.37;;;;;;;10.42;82.26;100199.48;2812755;84;21024;-71
2021/11/05 08:23:40;;;;;;;4.25;3.72;;;;;;;10.52;82.36;100218.64;2812845;84;20980;-70
2021/11/05 08:27:43;;;;;;;5.78;4.35;;;;;;;10.48;81.39;100214.06;2813210;84;21050;-69
2021/11/05 08:31:44;;;;;;;6.00;3.72;;;;;;;10.52;80.91;100225.30;2812724;84;21082;-70
2021/11/05 08:35:51;;;;;;;2.50;2.22;;;;;;;10.52;81.04;100218.64;2813037;84;20967;-70
2021/11/05 08:39:52;;;;;;;4.27;3.47;;;;;;;10.50;80.41;100220.09;2813188;84;21059;-71
2021/11/05 08:43:56;;;;;;;2.92;2.12;;;;;;;10.56;80.96;100230.71;2812915;84;21066;-71
2021/11/05 08:47:58;;;;;;;2.50;2.30;;;;;;;10.52;79.86;100237.27;2812709;84;21051;-70
2021/11/05 08:51:59;;;;;;;2.58;2.10;;;;;;;10.58;80.90;100252.70;2812891;84;21030;-71
2021/11/05 08:56:01;;;;;;;3.45;2.25;;;;;;;10.52;80.60;100260.73;2812968;84;21022;-70
2021/11/05 09:00:08;;;;;;;3.80;2.22;;;;;;;10.54;80.81;100267.23;2824814;84;21108;-71
2021/11/05 09:04:12;;;;;;;2.80;2.40;;;;;;;10.53;80.42;100275.72;2825609;84;21042;-71
2021/11/05 09:08:14;;;;;;;2.20;1.62;;;;;;;10.63;80.97;100297.08;2825870;84;21077;-70
2021/11/05 09:12:16;;;;;;;2.05;1.85;;;;;;;10.58;79.96;100300.58;2825778;84;21003;-71
2021/11/05 09:16:18;;;;;;;4.70;2.25;;;;;;;10.51;79.81;100298.08;2825587;84;21168;-70
2021/11/05 09:20:21;;;;;;;4.33;2.77;;;;;;;10.51;80.33;100310.05;2825860;84;21064;-70
2021/11/05 09:24:22;;;;;;;2.00;1.42;;;;;;;10.56;81.76;100315.83;2825711;84;21105;-71
2021/11/05 09:28:24;;;;;;;2.75;1.80;;;;;;;10.61;80.66;100316.32;2825598;84;21286;-71
2021/11/05 09:32:26;;;;;;;4.87;1.57;;;;;;;10.60;81.24;100325.73;2825694;84;21054;-71
2021/11/05 09:36:27;;;;;;;2.02;1.67;;;;;;;10.59;81.62;100332.86;2825813;84;21064;-70
2021/11/05 09:40:30;;;;;;;2.35;2.05;;;;;;;10.43;81.45;100335.45;2825753;84;21003;-71
2021/11/05 09:44:32;;;;;;;2.47;1.75;;;;;;;10.35;83.46;100343.66;2825675;84;21658;-72
2021/11/05 09:48:37;;;;;;;2.17;2.02;;;;;;;10.32;84.38;100362.02;2825423;84;21038;-71
2021/11/05 09:52:39;;;;;;;3.05;2.75;;;;;;;10.06;85.70;100384.88;2825375;82;21058;-71
2021/11/05 09:56:40;;;;;;;1.95;1.70;;;;;;;9.87;87.38;100388.10;2824972;82;21070;-72
2021/11/05 10:00:42;;;;;;;0.72;0.50;;;;;;;9.54;89.55;100397.71;2812661;83;21098;-71
2021/11/05 10:04:45;;;;;;;1.55;1.17;;;;;;;9.30;90.40;100402.55;2812757;83;21046;-72
2021/11/05 10:08:52;;;;;;;1.98;0.90;;;;;;;9.17;91.49;100393.84;2812571;84;21066;-72
2021/11/05 10:13:04;;;;;;;0.90;0.78;;;;;;;9.30;92.13;100403.88;2812361;84;21003;-71
2021/11/05 10:17:10;;;;;;;2.05;0.72;;;;;;;9.43;89.60;100405.12;2812491;84;21057;-73
2021/11/05 10:21:14;;;;;;;;;;;;;;;9.48;88.80;100409.64;2814828;84;21034;-72
2021/11/05 10:25:30;;;;;;;0.47;0.47;;;;;;;9.44;87.35;100396.23;2812785;84;20151;-74
2021/11/05 10:29:33;;;;;;;3.10;1.15;;;;;;;9.63;88.28;100412.07;2812691;84;21015;-74
2021/11/05 10:33:45;;;;;;;3.35;2.15;;;;;;;9.75;88.77;100408.49;2812647;84;21054;-73
2021/11/05 10:37:47;;;;;;;3.62;1.82;;;;;;;9.84;88.15;100421.09;2812573;83;21070;-71
2021/11/05 10:41:58;;;;;;;2.50;2.02;;;;;;;9.97;87.81;100424.11;2812876;84;21080;-72
2021/11/05 10:45:59;;;;;;;2.05;0.65;;;;;;;10.04;86.85;100420.50;2812712;84;21054;-70
2021/11/05 10:50:12;;;;;;;1.80;1.10;;;;;;;9.93;86.57;100423.98;2812541;84;21014;-71
2021/11/05 10:54:13;;;;;;;2.45;1.70;;;;;;;9.84;88.26;100443.67;2812596;84;21066;-71
2021/11/05 10:58:25;;;;;;;2.05;0.80;;;;;;;9.91;87.10;100431.23;2817017;84;21035;-70
2021/11/05 11:02:28;;;;;;;2.75;0.62;;;;;;;10.03;86.84;100439.59;2825550;84;21016;-73
2021/11/05 11:06:43;;;;;;;1.00;0.62;;;;;;;10.36;86.96;100435.75;2826157;84;21044;-71
2021/11/05 11:10:46;;;;;;;3.17;0.90;;;;;;;10.53;86.43;100437.09;2826102;84;21024;-72
2021/11/05 11:14:48;;;;;;;1.50;1.40;;;;;;;10.64;84.90;100438.91;2826089;84;21020;-72
2021/11/05 11:19:10;;;;;;;6.50;1.87;;;;;;;10.65;83.63;100421.50;2825900;84;21568;-71
2021/11/05 11:23:12;;;;;;;0.80;0.62;;;;;;;10.61;84.67;100443.14;2825839;84;21052;-72
2021/11/05 11:27:14;;;;;;;1.82;0.55;;;;;;;10.62;85.23;100437.71;2825513;84;21044;-73
2021/11/05 11:31:17;;;;;;;1.90;1.30;;;;;;;10.51;86.93;100444.36;2825497;84;21027;-73
2021/11/05 11:35:19;;;;;;;4.10;1.57;;;;;;;10.41;85.29;100456.20;2825665;84;21075;-71
2021/11/05 11:39:23;;;;;;;7.92;1.82;;;;;;;10.25;84.28;100463.19;2825719;84;21367;-71
2021/11/05 11:43:27;;;;;;;2.80;1.42;;;;;;;10.22;85.53;100472.70;2825478;84;21004;-71
2021/11/05 11:47:33;;;;;;;1.87;0.93;;;;;;;10.17;87.78;100477.53;2825842;84;21039;-71
2021/11/05 11:51:42;;;;;;;1.45;1.07;;;;;;;10.07;87.31;100475.60;2815033;84;21071;-72
2021/11/05 11:55:41;;;;;;;2.02;1.27;;;;;;;9.94;88.17;100486.33;2825125;84;21009;-71
2021/11/05 11:59:45;;;;;;;1.50;1.10;;;;;;;9.94;88.69;100498.28;2825637;84;21091;-70
2021/11/05 12:04:06;;;;;;;5.08;1.50;;;;;;;9.89;89.27;100498.27;2825905;84;21302;-71
2021/11/05 12:08:34;;;;;;;1.25;1.07;;;;;;;9.79;88.63;100510.89;2825650;84;21020;-71
2021/11/05 12:12:34;;;;;;;2.42;0.98;;;;;;;9.72;88.97;100528.27;2824837;84;21377;-71
2021/11/05 12:16:36;;;;;;;4.17;1.07;;;;;;;9.64;88.81;100532.81;2825743;84;21059;-72
2021/11/05 12:20:41;;;;;;;2.30;1.15;;;;;;;9.60;88.30;100525.18;2825747;84;21024;-73
2021/11/05 12:24:46;;;;;;;1.85;0.98;;;;;;;9.56;89.72;100528.56;2825624;84;21016;-73
2021/11/05 12:28:48;;;;;;;1.22;1.12;;;;;;;9.45;89.37;100544.42;2825069;84;21075;-72
2021/11/05 12:32:49;;;;;;;1.57;0.82;;;;;;;9.38;89.17;100530.75;2825613;84;21032;-73
2021/11/05 12:36:58;;;;;;;0.70;0.50;;;;;;;9.32;89.01;100547.13;2825633;84;21036;-71
2021/11/05 12:41:04;;;;;;;0.78;0.70;;;;;;;9.27;89.89;100556.75;2826038;84;21036;-71
2021/11/05 12:45:05;;;;;;;0.70;0.70;;;;;;;9.23;90.24;100562.75;2825794;84;21350;-72
2021/11/05 12:49:12;;;;;;;0.68;0.55;;;;;;;9.19;89.72;100555.14;2825451;84;21277;-72
2021/11/05 12:53:14;;;;;;;0.85;0.50;;;;;;;9.16;90.77;100561.50;2825043;83;21044;-71
2021/11/05 12:57:15;;;;;;;1.87;0.95;;;;;;;9.15;91.68;100569.10;2819011;84;21040;-72
2021/11/05 13:01:19;;;;;;;0.78;0.55;;;;;;;9.13;91.97;100573.17;2825687;84;21111;-72
2021/11/05 13:05:23;;;;;;;0.88;0.75;;;;;;;9.06;91.28;100575.08;2825274;84;21028;-71
2021/11/05 13:09:37;;;;;;;1.27;0.80;;;;;;;9.12;91.93;100568.00;2825477;84;21111;-70
2021/11/05 13:13:41;;;;;;;1.22;1.12;;;;;;;9.09;91.85;100578.84;2825548;84;21039;-72
2021/11/05 13:17:42;;;;;;;1.05;0.82;;;;;;;9.11;90.89;100577.75;2825075;84;21053;-72
2021/11/05 13:21:44;;;;;;;1.22;0.80;;;;;;;9.16;90.28;100584.06;2825783;82;21035;-71
2021/11/05 13:25:50;;;;;;;2.98;0.75;;;;;;;9.23;91.03;100591.95;2825900;84;20981;-71
2021/11/05 13:29:51;;;;;;;0.30;0.30;;;;;;;9.17;90.38;100599.53;2825901;84;21038;-71
2021/11/05 13:33:53;;;;;;;0.30;0.30;;;;;;;9.18;90.37;100602.05;2825791;84;21027;-70
2021/11/05 13:38:06;;;;;;;0.78;0.70;;;;;;;9.16;91.28;100613.75;2825745;84;21586;-73
2021/11/05 13:42:19;;;;;;;1.45;0.90;;;;;;;9.16;90.91;100612.42;2825101;84;21087;-71
2021/11/05 13:46:25;;;;;;;0.72;0.72;;;;;;;9.07;91.38;100624.54;2825757;84;21060;-71
2021/11/05 13:50:27;;;;;;;;;;;;;;;9.10;92.00;100626.97;2828183;84;21040;-73
2021/11/05 13:54:28;;;;;;;1.55;0.88;;;;;;;9.10;92.61;100629.63;2825387;84;20122;-71
2021/11/05 13:58:31;;;;;;;0.98;0.47;;;;;;;9.15;91.79;100635.45;2825581;83;21028;-73
2021/11/05 14:02:33;;;;;;;1.85;0.80;;;;;;;9.21;92.09;100628.87;2814107;84;21048;-73
2021/11/05 14:06:44;;;;;;;4.12;0.93;;;;;;;9.16;91.12;100628.35;2816069;84;20996;-70
2021/11/05 14:10:58;;;;;;;1.40;1.02;;;;;;;9.18;91.45;100633.91;2819285;83;21043;-69
2021/11/05 14:15:02;;;;;;;1.35;0.95;;;;;;;9.27;91.87;100641.23;2797340;83;21008;-70
2021/11/05 14:19:19;;;;;;;1.70;0.90;;;;;;;9.23;91.09;100639.72;2798775;84;21080;-69
2021/11/05 14:23:33;;;;;;;1.75;0.80;;;;;;;9.26;90.79;100638.20;2778718;85;21040;-68
2021/11/05 14:27:35;;;;;;;1.07;0.65;;;;;;;9.28;91.05;100646.91;2822282;84;21548;-69
2021/11/05 14:31:59;;;;;;;1.22;0.95;;;;;;;9.34;90.89;100647.42;2826037;83;21056;-69
2021/11/05 14:36:00;;;;;;;1.98;1.27;;;;;;;9.36;90.94;100648.16;2825620;84;21110;-69
2021/11/05 14:40:16;;;;;;;1.47;1.32;;;;;;;9.34;89.93;100651.41;2813236;84;21067;-70
2021/11/05 14:44:22;;;;;;;2.20;1.07;;;;;;;9.34;89.89;100659.38;2779233;85;21035;-70
2021/11/05 14:48:26;;;;;;;3.35;1.65;;;;;;;9.27;90.17;100661.14;2778817;85;21027;-74
2021/11/05 14:52:27;;;;;;;8.80;1.77;;;;;;;9.18;90.25;100662.27;2770688;85;21099;-72
2021/11/05 14:56:32;;;;;;;2.50;1.82;;;;;;;9.21;90.67;100672.66;2777873;84;21035;-73
2021/11/05 15:00:34;;;;;;;1.77;1.67;;;;;;;9.18;90.69;100669.73;2777483;85;21062;-72
2021/11/05 15:04:37;;;;;;;2.90;1.45;;;;;;;9.16;90.72;100680.94;2777303;85;21117;-75
2021/11/05 15:08:42;;;;;;;2.37;1.77;;;;;;;9.12;91.04;100684.77;2777436;85;21085;-73
2021/11/05 15:12:43;;;;;;;3.90;2.80;;;;;;;9.11;91.10;100686.56;2777455;85;21065;-70
2021/11/05 15:16:45;;;;;;;2.40;1.50;;;;;;;9.13;91.21;100689.12;2777250;85;21037;-73
2021/11/05 15:20:48;;;;;;;1.82;1.32;;;;;;;9.07;91.41;100692.21;2777700;85;21026;-75
2021/11/05 15:24:52;;;;;;;6.42;3.22;;;;;;;9.10;91.22;100705.27;2777659;85;21157;-73
2021/11/05 15:28:56;;;;;;;3.25;1.70;;;;;;;9.12;91.42;100698.88;2777676;84;21085;-72
2021/11/05 15:32:58;;;;;;;2.85;1.60;;;;;;;9.13;91.00;100705.05;2777714;85;21075;-74
2021/11/05 15:36:59;;;;;;;2.17;1.87;;;;;;;9.11;90.89;100705.14;2778879;85;21082;-73
2021/11/05 15:41:04;;;;;;;3.12;2.35;;;;;;;9.09;91.07;100710.20;2778431;85;21357;-71
2021/11/05 15:45:07;;;;;;;2.37;1.95;;;;;;;9.09;91.35;100712.85;2778594;85;21014;-72
2021/11/05 15:49:08;;;;;;;5.78;3.27;;;;;;;9.10;91.90;100718.03;2778559;85;21106;-71
2021/11/05 15:53:10;;;;;;;2.85;1.98;;;;;;;9.10;91.55;100719.86;2778388;85;21042;-71
2021/11/05 15:57:13;;;;;;;3.80;3.12;;;;;;;9.14;91.65;100728.84;2777790;84;21094;-72
2021/11/05 16:01:16;;;;;;;3.20;2.85;;;;;;;9.14;91.71;100730.62;2768433;85;21368;-72
2021/11/05 16:05:19;;;;;;;3.30;2.80;;;;;;;9.13;91.45;100735.56;2765665;86;21082;-73
2021/11/05 16:09:22;;;;;;;5.58;2.92;;;;;;;9.10;91.60;100736.61;2765179;86;21082;-72
2021/11/05 16:13:23;;;;;;;3.27;2.47;;;;;;;9.14;91.74;100747.88;2765564;86;21058;-72
2021/11/05 16:17:25;;;;;;;4.45;3.47;;;;;;;9.11;91.93;100754.23;2765521;86;21078;-73
2021/11/05 16:21:29;;;;;;;4.87;3.65;;;;;;;9.15;91.87;100754.89;2767562;83;21007;-71
2021/11/05 16:25:31;;;;;;;9.38;3.90;;;;;;;9.13;91.92;100752.33;2811979;84;21035;-72
2021/11/05 16:29:32;;;;;;;4.83;4.20;;;;;;;9.12;91.95;100755.94;2811972;84;21097;-73
2021/11/05 16:33:34;;;;;;;8.90;4.78;;;;;;;9.14;91.85;100765.13;2812115;84;20999;-73
2021/11/05 16:37:36;;;;;;;6.10;4.87;;;;;;;9.11;91.97;100766.67;2811889;84;21347;-71
2021/11/05 16:41:39;;;;;;;6.20;3.85;;;;;;;9.06;92.33;100765.65;2812345;83;21146;-72
2021/11/05 16:45:41;;;;;;;7.20;5.22;;;;;;;9.04;92.76;100774.20;2812124;84;21054;-73
2021/11/05 16:49:45;;;;;;;5.28;4.75;;;;;;;9.07;92.86;100781.11;2812007;84;21078;-73
2021/11/05 16:53:48;;;;;;;6.30;5.35;;;;;;;9.02;93.16;100795.14;2812052;84;21089;-70
2021/11/05 16:57:50;;;;;;;7.55;5.97;;;;;;;9.03;93.32;100792.40;2812263;83;21043;-72
2021/11/05 17:01:52;;;;;;;6.25;5.62;;;;;;;9.06;93.48;100797.98;2812261;84;21039;-71
2021/11/05 17:05:53;;;;;;;8.93;7.12;;;;;;;9.04;93.96;100800.73;2812215;84;21066;-71
2021/11/05 17:09:55;;;;;;;6.65;5.00;;;;;;;9.12;94.04;100816.14;2812236;84;21066;-72
2021/11/05 17:13:56;;;;;;;6.90;5.97;;;;;;;9.14;93.67;100816.42;2812538;84;21106;-72
2021/11/05 17:17:58;;;;;;;6.60;5.85;;;;;;;9.19;93.30;100821.89;2812421;84;20995;-71
2021/11/05 17:22:00;;;;;;;8.25;6.55;;;;;;;9.20;93.32;100837.70;2795878;83;21022;-71
2021/11/05 17:26:04;;;;;;;7.40;6.20;;;;;;;9.24;93.36;100835.70;2774186;83;21023;-73
2021/11/05 17:30:09;;;;;;;10.50;7.55;;;;;;;9.35;93.35;100844.27;2783802;83;21606;-73
2021/11/05 17:34:12;;;;;;;9.03;7.27;;;;;;;9.37;92.81;100837.04;2795633;84;21098;-73
2021/11/05 17:38:15;;;;;;;7.70;6.60;;;;;;;9.38;92.33;100842.26;2812862;83;21150;-72
2021/11/05 17:42:17;;;;;;;13.15;7.33;;;;;;;9.41;91.82;100842.51;2813239;84;21039;-71
2021/11/05 17:46:19;;;;;;;5.83;4.95;;;;;;;9.36;91.66;100852.59;2812887;84;21050;-71
2021/11/05 17:50:21;;;;;;;7.33;5.33;;;;;;;9.30;91.76;100865.80;2812757;84;21023;-72
2021/11/05 17:54:23;;;;;;;6.55;5.42;;;;;;;9.29;91.66;100874.72;2804508;84;21082;-72
2021/11/05 17:58:25;;;;;;;6.72;6.03;;;;;;;9.28;91.73;100877.87;2858642;83;21070;-73
2021/11/05 18:02:27;;;;;;;9.13;6.35;;;;;;;9.19;91.82;100879.80;2860313;83;21253;-72
2021/11/05 18:06:29;;;;;;;6.62;5.87;;;;;;;9.14;91.84;100889.88;2860813;83;21097;-73
2021/11/05 18:10:31;;;;;;;8.35;6.87;;;;;;;9.11;91.71;100890.92;2860585;83;21031;-74
2021/11/05 18:14:33;;;;;;;9.05;7.50;;;;;;;9.00;91.98;100899.59;2860959;83;21042;-73
2021/11/05 18:18:34;;;;;;;7.87;6.55;;;;;;;8.95;92.04;100891.58;2860614;83;21058;-74
2021/11/05 18:22:37;;;;;;;6.60;5.78;;;;;;;8.85;92.36;100902.78;2860608;83;21045;-73
2021/11/05 18:26:43;;;;;;;8.08;6.40;;;;;;;8.84;92.14;100899.75;2834865;83;21052;-74
2021/11/05 18:30:45;;;;;;;7.92;6.33;;;;;;;8.81;92.20;100906.58;2812629;84;21020;-73
2021/11/05 18:34:46;;;;;;;7.28;6.22;;;;;;;8.79;92.10;100910.28;2812428;84;21036;-72
2021/11/05 18:38:49;;;;;;;8.13;5.97;;;;;;;8.74;92.60;100920.34;2812387;84;21080;-74
2021/11/05 18:42:51;;;;;;;7.28;6.12;;;;;;;8.75;92.96;100916.73;2812350;84;21021;-73
2021/11/05 18:46:53;;;;;;;7.00;5.67;;;;;;;8.70;92.96;100926.30;2812319;84;21043;-74
2021/11/05 18:50:54;;;;;;;8.48;7.62;;;;;;;8.69;92.71;100926.80;2812584;84;21075;-74
2021/11/05 18:54:56;;;;;;;9.10;7.05;;;;;;;8.69;92.44;100928.58;2817450;83;21050;-76
2021/11/05 18:58:58;;;;;;;9.45;7.30;;;;;;;8.67;92.00;100927.83;2860697;83;21035;-74
2021/11/05 19:03:00;;;;;;;12.33;8.40;;;;;;;8.60;92.21;100934.48;2861095;80;21046;-72